sensor_id;sensor_type;location;lat;lon;timestamp;pressure;altitude;pressure_sealevel;temperature;humidity
53514;BME280;39768;54.148;12.174;2023-05-12T00:00:59;101813.81;;;14.89;nan
53514;BME280;39768;54.148;12.174;2023-05-12T00:05:01;101814.69;;;14.89;nan
53514;BME280;39768;54.148;12.174;2023-05-12T00:09:02;101815.72;;;14.80;nan
53514;BME280;39768;54.148;12.174;2023-05-12T00:13:04;101816.25;;;15.05;nan
53514;BME280;39768;54.148;12.174;2023-05-12T00:17:06;101817.47;;;14.83;nan
53514;BME280;39768;54.148;12.174;2023-05-12T00:21:07;101819.56;;;14.58;nan
53514;BME280;39768;54.148;12.174;2023-05-12T00:25:09;101822.34;;;14.54;nan
53514;BME280;39768;54.148;12.174;2023-05-12T00:29:11;101820.44;;;14.60;nan
53514;BME280;39768;54.148;12.174;2023-05-12T00:33:12;101820.00;;;14.92;nan
53514;BME280;39768;54.148;12.174;2023-05-12T00:37:14;101829.59;;;15.07;nan
53514;BME280;39768;54.148;12.174;2023-05-12T00:41:15;101826.94;;;15.05;nan
53514;BME280;39768;54.148;12.174;2023-05-12T00:45:17;101832.75;;;14.72;nan
53514;BME280;39768;54.148;12.174;2023-05-12T00:49:19;101823.44;;;14.31;nan
53514;BME280;39768;54.148;12.174;2023-05-12T00:53:21;101825.78;;;14.62;nan
53514;BME280;39768;54.148;12.174;2023-05-12T00:57:24;101830.41;;;14.49;nan
53514;BME280;39768;54.148;12.174;2023-05-12T01:01:26;101828.09;;;14.12;nan
53514;BME280;39768;54.148;12.174;2023-05-12T01:05:37;101835.19;;;14.15;nan
53514;BME280;39768;54.148;12.174;2023-05-12T01:09:39;101831.00;;;13.93;nan
53514;BME280;39768;54.148;12.174;2023-05-12T01:13:41;101834.56;;;13.92;nan
53514;BME280;39768;54.148;12.174;2023-05-12T01:17:51;101832.03;;;13.80;nan
53514;BME280;39768;54.148;12.174;2023-05-12T01:21:55;101832.97;;;13.72;nan
53514;BME280;39768;54.148;12.174;2023-05-12T01:26:08;101834.56;;;13.93;nan
53514;BME280;39768;54.148;12.174;2023-05-12T01:30:15;101830.94;;;13.97;nan
53514;BME280;39768;54.148;12.174;2023-05-12T01:34:17;101836.94;;;14.19;nan
53514;BME280;39768;54.148;12.174;2023-05-12T01:38:23;101839.78;;;14.04;nan
53514;BME280;39768;54.148;12.174;2023-05-12T01:42:25;101841.31;;;14.25;nan
53514;BME280;39768;54.148;12.174;2023-05-12T01:46:26;101834.13;;;14.33;nan
53514;BME280;39768;54.148;12.174;2023-05-12T01:50:31;101836.06;;;14.20;nan
53514;BME280;39768;54.148;12.174;2023-05-12T01:54:34;101830.88;;;14.03;nan
53514;BME280;39768;54.148;12.174;2023-05-12T01:58:36;101839.91;;;13.92;nan
53514;BME280;39768;54.148;12.174;2023-05-12T02:02:38;101847.81;;;14.01;nan
53514;BME280;39768;54.148;12.174;2023-05-12T02:06:42;101857.63;;;14.00;nan
53514;BME280;39768;54.148;12.174;2023-05-12T02:10:43;101852.16;;;14.11;nan
53514;BME280;39768;54.148;12.174;2023-05-12T02:14:45;101858.25;;;13.26;nan
53514;BME280;39768;54.148;12.174;2023-05-12T02:18:46;101860.00;;;13.28;nan
53514;BME280;39768;54.148;12.174;2023-05-12T02:22:48;101864.59;;;13.00;nan
53514;BME280;39768;54.148;12.174;2023-05-12T02:26:50;101855.59;;;13.21;nan
53514;BME280;39768;54.148;12.174;2023-05-12T02:30:52;101857.22;;;13.45;nan
53514;BME280;39768;54.148;12.174;2023-05-12T02:34:55;101866.38;;;13.01;nan
53514;BME280;39768;54.148;12.174;2023-05-12T02:38:57;101875.34;;;12.88;nan
53514;BME280;39768;54.148;12.174;2023-05-12T02:42:59;101872.69;;;12.84;nan
53514;BME280;39768;54.148;12.174;2023-05-12T02:47:00;101874.41;;;12.92;nan
53514;BME280;39768;54.148;12.174;2023-05-12T02:51:02;101871.81;;;12.80;nan
53514;BME280;39768;54.148;12.174;2023-05-12T02:55:04;101872.81;;;12.55;nan
53514;BME280;39768;54.148;12.174;2023-05-12T02:59:06;101880.88;;;12.36;nan
53514;BME280;39768;54.148;12.174;2023-05-12T03:03:07;101875.56;;;12.29;nan
53514;BME280;39768;54.148;12.174;2023-05-12T03:07:09;101872.81;;;12.59;nan
53514;BME280;39768;54.148;12.174;2023-05-12T03:11:10;101869.16;;;12.80;nan
53514;BME280;39768;54.148;12.174;2023-05-12T03:15:13;101866.56;;;12.62;nan
53514;BME280;39768;54.148;12.174;2023-05-12T03:19:14;101869.25;;;12.60;nan
53514;BME280;39768;54.148;12.174;2023-05-12T03:23:16;101863.97;;;12.47;nan
53514;BME280;39768;54.148;12.174;2023-05-12T03:27:18;101869.31;;;12.33;nan
53514;BME280;39768;54.148;12.174;2023-05-12T03:31:20;101871.94;;;12.59;nan
53514;BME280;39768;54.148;12.174;2023-05-12T03:35:22;101873.69;;;12.60;nan
53514;BME280;39768;54.148;12.174;2023-05-12T03:39:23;101873.69;;;12.60;nan
53514;BME280;39768;54.148;12.174;2023-05-12T03:43:26;101878.03;;;12.82;nan
53514;BME280;39768;54.148;12.174;2023-05-12T03:47:27;101876.47;;;12.29;nan
53514;BME280;39768;54.148;12.174;2023-05-12T03:51:29;101879.88;;;12.71;nan
53514;BME280;39768;54.148;12.174;2023-05-12T03:55:31;101883.56;;;12.29;nan
53514;BME280;39768;54.148;12.174;2023-05-12T03:59:32;101886.03;;;12.78;nan
53514;BME280;39768;54.148;12.174;2023-05-12T04:03:34;101881.59;;;12.77;nan
53514;BME280;39768;54.148;12.174;2023-05-12T04:07:36;101878.06;;;12.75;nan
53514;BME280;39768;54.148;12.174;2023-05-12T04:11:38;101885.06;;;12.97;nan
53514;BME280;39768;54.148;12.174;2023-05-12T04:15:40;101883.94;;;13.40;nan
53514;BME280;39768;54.148;12.174;2023-05-12T04:19:41;101888.94;;;15.88;nan
53514;BME280;39768;54.148;12.174;2023-05-12T04:23:43;101915.59;;;15.41;nan
53514;BME280;39768;54.148;12.174;2023-05-12T04:27:44;101907.22;;;17.82;nan
53514;BME280;39768;54.148;12.174;2023-05-12T04:31:46;101925.47;;;16.89;nan
53514;BME280;39768;54.148;12.174;2023-05-12T04:35:48;101923.78;;;16.84;nan
53514;BME280;39768;54.148;12.174;2023-05-12T04:39:49;101927.47;;;16.32;nan
53514;BME280;39768;54.148;12.174;2023-05-12T04:43:51;101930.50;;;16.60;nan
53514;BME280;39768;54.148;12.174;2023-05-12T04:47:56;101925.56;;;16.85;nan
53514;BME280;39768;54.148;12.174;2023-05-12T04:51:57;101929.19;;;17.64;nan
53514;BME280;39768;54.148;12.174;2023-05-12T04:55:59;101941.63;;;17.28;nan
53514;BME280;39768;54.148;12.174;2023-05-12T05:00:05;101936.94;;;17.76;nan
53514;BME280;39768;54.148;12.174;2023-05-12T05:04:07;101941.44;;;20.19;nan
53514;BME280;39768;54.148;12.174;2023-05-12T05:08:09;101941.25;;;18.84;nan
53514;BME280;39768;54.148;12.174;2023-05-12T05:12:11;101945.41;;;18.95;nan
53514;BME280;39768;54.148;12.174;2023-05-12T05:16:12;101950.44;;;18.77;nan
53514;BME280;39768;54.148;12.174;2023-05-12T05:20:15;101955.06;;;16.85;nan
53514;BME280;39768;54.148;12.174;2023-05-12T05:24:17;101959.75;;;15.72;nan
53514;BME280;39768;54.148;12.174;2023-05-12T05:28:18;101965.66;;;15.31;nan
53514;BME280;39768;54.148;12.174;2023-05-12T05:32:20;101966.16;;;15.61;nan
53514;BME280;39768;54.148;12.174;2023-05-12T05:36:23;101961.81;;;15.52;nan
53514;BME280;39768;54.148;12.174;2023-05-12T05:40:27;101966.81;;;15.75;nan
53514;BME280;39768;54.148;12.174;2023-05-12T05:44:31;101981.78;;;15.88;nan
53514;BME280;39768;54.148;12.174;2023-05-12T05:48:34;101984.59;;;15.80;nan
53514;BME280;39768;54.148;12.174;2023-05-12T05:52:37;101983.63;;;15.88;nan
53514;BME280;39768;54.148;12.174;2023-05-12T05:56:38;101981.84;;;16.37;nan
53514;BME280;39768;54.148;12.174;2023-05-12T06:00:40;101985.94;;;16.60;nan
53514;BME280;39768;54.148;12.174;2023-05-12T06:04:42;101991.72;;;16.84;nan
53514;BME280;39768;54.148;12.174;2023-05-12T06:08:44;101997.34;;;17.15;nan
53514;BME280;39768;54.148;12.174;2023-05-12T06:12:46;101999.16;;;17.55;nan
53514;BME280;39768;54.148;12.174;2023-05-12T06:16:48;101992.41;;;17.79;nan
53514;BME280;39768;54.148;12.174;2023-05-12T06:20:49;101991.25;;;17.89;nan
53514;BME280;39768;54.148;12.174;2023-05-12T06:24:51;102002.75;;;18.29;nan
53514;BME280;39768;54.148;12.174;2023-05-12T06:28:52;102001.03;;;18.62;nan
53514;BME280;39768;54.148;12.174;2023-05-12T06:32:54;102000.28;;;18.56;nan
53514;BME280;39768;54.148;12.174;2023-05-12T06:36:56;102007.38;;;18.60;nan
53514;BME280;39768;54.148;12.174;2023-05-12T06:40:57;102004.97;;;18.48;nan
53514;BME280;39768;54.148;12.174;2023-05-12T06:44:59;102013.56;;;18.28;nan
53514;BME280;39768;54.148;12.174;2023-05-12T06:49:01;102006.94;;;18.41;nan
53514;BME280;39768;54.148;12.174;2023-05-12T06:53:02;102020.06;;;18.55;nan
53514;BME280;39768;54.148;12.174;2023-05-12T06:57:05;102015.41;;;18.94;nan
53514;BME280;39768;54.148;12.174;2023-05-12T07:01:06;102010.09;;;18.91;nan
53514;BME280;39768;54.148;12.174;2023-05-12T07:05:08;102010.47;;;18.79;nan
53514;BME280;39768;54.148;12.174;2023-05-12T07:09:10;102009.22;;;18.90;nan
53514;BME280;39768;54.148;12.174;2023-05-12T07:13:11;102017.78;;;19.35;nan
53514;BME280;39768;54.148;12.174;2023-05-12T07:17:13;102018.75;;;19.92;nan
53514;BME280;39768;54.148;12.174;2023-05-12T07:21:14;102013.66;;;19.55;nan
53514;BME280;39768;54.148;12.174;2023-05-12T07:25:16;102019.81;;;20.67;nan
53514;BME280;39768;54.148;12.174;2023-05-12T07:29:18;102011.69;;;20.68;nan
53514;BME280;39768;54.148;12.174;2023-05-12T07:33:20;102019.59;;;20.20;nan
53514;BME280;39768;54.148;12.174;2023-05-12T07:37:21;102020.09;;;20.33;nan
53514;BME280;39768;54.148;12.174;2023-05-12T07:41:23;102025.34;;;20.10;nan
53514;BME280;39768;54.148;12.174;2023-05-12T07:45:24;102017.56;;;20.55;nan
53514;BME280;39768;54.148;12.174;2023-05-12T07:49:26;102021.91;;;21.33;nan
53514;BME280;39768;54.148;12.174;2023-05-12T07:53:27;102029.72;;;21.64;nan
53514;BME280;39768;54.148;12.174;2023-05-12T07:57:29;102017.94;;;20.94;nan
53514;BME280;39768;54.148;12.174;2023-05-12T08:01:30;102025.00;;;20.98;nan
53514;BME280;39768;54.148;12.174;2023-05-12T08:05:32;102023.50;;;21.62;nan
53514;BME280;39768;54.148;12.174;2023-05-12T08:09:34;102026.59;;;21.03;nan
53514;BME280;39768;54.148;12.174;2023-05-12T08:13:36;102027.06;;;21.39;nan
53514;BME280;39768;54.148;12.174;2023-05-12T08:17:37;102021.34;;;21.70;nan
53514;BME280;39768;54.148;12.174;2023-05-12T08:21:39;102035.22;;;21.38;nan
53514;BME280;39768;54.148;12.174;2023-05-12T08:25:41;102031.09;;;21.74;nan
53514;BME280;39768;54.148;12.174;2023-05-12T08:29:44;102023.66;;;21.58;nan
53514;BME280;39768;54.148;12.174;2023-05-12T08:33:46;102032.72;;;21.33;nan
53514;BME280;39768;54.148;12.174;2023-05-12T08:37:52;102035.69;;;21.72;nan
53514;BME280;39768;54.148;12.174;2023-05-12T08:42:29;102035.34;;;21.58;nan
53514;BME280;39768;54.148;12.174;2023-05-12T08:46:31;102031.03;;;21.99;nan
53514;BME280;39768;54.148;12.174;2023-05-12T08:50:34;102040.28;;;22.37;nan
53514;BME280;39768;54.148;12.174;2023-05-12T08:54:36;102032.09;;;21.95;nan
53514;BME280;39768;54.148;12.174;2023-05-12T08:58:49;102036.66;;;21.48;nan
53514;BME280;39768;54.148;12.174;2023-05-12T09:02:51;102021.72;;;21.61;nan
53514;BME280;39768;54.148;12.174;2023-05-12T09:06:55;102031.44;;;21.89;nan
53514;BME280;39768;54.148;12.174;2023-05-12T09:10:58;102028.78;;;22.52;nan
53514;BME280;39768;54.148;12.174;2023-05-12T09:15:04;102027.13;;;22.70;nan
53514;BME280;39768;54.148;12.174;2023-05-12T09:19:07;102032.91;;;22.61;nan
53514;BME280;39768;54.148;12.174;2023-05-12T09:23:13;102028.16;;;22.46;nan
53514;BME280;39768;54.148;12.174;2023-05-12T09:27:23;102029.97;;;22.45;nan
53514;BME280;39768;54.148;12.174;2023-05-12T09:31:24;102038.97;;;22.88;nan
53514;BME280;39768;54.148;12.174;2023-05-12T09:35:27;102040.56;;;22.72;nan
53514;BME280;39768;54.148;12.174;2023-05-12T09:39:30;102025.59;;;22.63;nan
53514;BME280;39768;54.148;12.174;2023-05-12T09:43:31;102025.44;;;23.08;nan
53514;BME280;39768;54.148;12.174;2023-05-12T09:47:34;102027.28;;;23.66;nan
53514;BME280;39768;54.148;12.174;2023-05-12T09:51:36;102017.31;;;23.85;nan
53514;BME280;39768;54.148;12.174;2023-05-12T09:55:38;102021.88;;;22.45;nan
53514;BME280;39768;54.148;12.174;2023-05-12T09:59:40;102027.88;;;22.94;nan
53514;BME280;39768;54.148;12.174;2023-05-12T10:03:45;102015.75;;;23.61;nan
53514;BME280;39768;54.148;12.174;2023-05-12T10:07:50;102026.81;;;22.98;nan
53514;BME280;39768;54.148;12.174;2023-05-12T10:11:54;102031.78;;;23.28;nan
53514;BME280;39768;54.148;12.174;2023-05-12T10:15:57;102024.91;;;23.96;nan
53514;BME280;39768;54.148;12.174;2023-05-12T10:20:00;102028.34;;;23.04;nan
53514;BME280;39768;54.148;12.174;2023-05-12T10:24:02;102019.28;;;23.44;nan
53514;BME280;39768;54.148;12.174;2023-05-12T10:28:04;102024.84;;;23.60;nan
53514;BME280;39768;54.148;12.174;2023-05-12T10:32:06;102009.69;;;23.55;nan
53514;BME280;39768;54.148;12.174;2023-05-12T10:36:18;102015.19;;;22.54;nan
53514;BME280;39768;54.148;12.174;2023-05-12T10:40:23;102021.56;;;23.14;nan
53514;BME280;39768;54.148;12.174;2023-05-12T10:44:28;102013.59;;;23.48;nan
53514;BME280;39768;54.148;12.174;2023-05-12T10:48:30;102019.19;;;24.02;nan
53514;BME280;39768;54.148;12.174;2023-05-12T10:52:31;102012.00;;;23.05;nan
53514;BME280;39768;54.148;12.174;2023-05-12T11:00:49;102013.69;;;24.56;nan
53514;BME280;39768;54.148;12.174;2023-05-12T11:04:56;102012.09;;;24.52;nan
53514;BME280;39768;54.148;12.174;2023-05-12T11:09:01;102007.38;;;24.39;nan
53514;BME280;39768;54.148;12.174;2023-05-12T11:13:03;102004.66;;;24.39;nan
53514;BME280;39768;54.148;12.174;2023-05-12T11:17:05;102004.66;;;24.39;nan
53514;BME280;39768;54.148;12.174;2023-05-12T11:21:10;102005.19;;;23.92;nan
53514;BME280;39768;54.148;12.174;2023-05-12T11:25:12;102011.06;;;24.55;nan
53514;BME280;39768;54.148;12.174;2023-05-12T11:29:14;102018.41;;;23.81;nan
53514;BME280;39768;54.148;12.174;2023-05-12T11:33:19;102004.19;;;24.31;nan
53514;BME280;39768;54.148;12.174;2023-05-12T11:37:21;102012.97;;;24.00;nan
53514;BME280;39768;54.148;12.174;2023-05-12T11:41:24;102010.53;;;23.94;nan
53514;BME280;39768;54.148;12.174;2023-05-12T11:45:27;102007.00;;;23.74;nan
53514;BME280;39768;54.148;12.174;2023-05-12T11:49:30;102010.06;;;23.67;nan
53514;BME280;39768;54.148;12.174;2023-05-12T11:53:32;102007.69;;;24.84;nan
53514;BME280;39768;54.148;12.174;2023-05-12T11:57:39;102022.13;;;23.78;nan
53514;BME280;39768;54.148;12.174;2023-05-12T12:01:44;102022.72;;;24.21;nan
53514;BME280;39768;54.148;12.174;2023-05-12T12:05:59;102017.19;;;24.41;nan
53514;BME280;39768;54.148;12.174;2023-05-12T12:10:15;102023.81;;;25.22;nan
53514;BME280;39768;54.148;12.174;2023-05-12T12:14:17;102030.16;;;24.88;nan
53514;BME280;39768;54.148;12.174;2023-05-12T12:18:18;102031.59;;;24.95;nan
53514;BME280;39768;54.148;12.174;2023-05-12T12:22:20;102030.59;;;25.46;nan
53514;BME280;39768;54.148;12.174;2023-05-12T12:26:22;102032.38;;;25.47;nan
53514;BME280;39768;54.148;12.174;2023-05-12T12:30:24;102027.28;;;24.91;nan
53514;BME280;39768;54.148;12.174;2023-05-12T12:34:26;102029.97;;;25.08;nan
53514;BME280;39768;54.148;12.174;2023-05-12T12:38:27;102029.28;;;25.53;nan
53514;BME280;39768;54.148;12.174;2023-05-12T12:42:29;102019.66;;;25.48;nan
53514;BME280;39768;54.148;12.174;2023-05-12T12:46:30;102020.94;;;25.74;nan
53514;BME280;39768;54.148;12.174;2023-05-12T12:50:34;102031.53;;;24.62;nan
53514;BME280;39768;54.148;12.174;2023-05-12T12:54:35;102028.16;;;24.91;nan
53514;BME280;39768;54.148;12.174;2023-05-12T12:58:37;102023.81;;;25.22;nan
53514;BME280;39768;54.148;12.174;2023-05-12T13:02:39;102018.47;;;23.98;nan
53514;BME280;39768;54.148;12.174;2023-05-12T13:06:41;102025.75;;;24.51;nan
53514;BME280;39768;54.148;12.174;2023-05-12T13:10:42;102016.06;;;24.80;nan
53514;BME280;39768;54.148;12.174;2023-05-12T13:14:44;102026.75;;;25.50;nan
53514;BME280;39768;54.148;12.174;2023-05-12T13:18:45;102029.91;;;24.75;nan
53514;BME280;39768;54.148;12.174;2023-05-12T13:22:47;102020.88;;;25.58;nan
53514;BME280;39768;54.148;12.174;2023-05-12T13:26:48;102024.47;;;24.58;nan
53514;BME280;39768;54.148;12.174;2023-05-12T13:30:51;102021.84;;;24.20;nan
53514;BME280;39768;54.148;12.174;2023-05-12T13:34:53;102022.81;;;24.73;nan
53514;BME280;39768;54.148;12.174;2023-05-12T13:38:54;102034.22;;;24.97;nan
53514;BME280;39768;54.148;12.174;2023-05-12T13:42:56;102023.38;;;24.97;nan
53514;BME280;39768;54.148;12.174;2023-05-12T13:46:58;102024.97;;;25.34;nan
53514;BME280;39768;54.148;12.174;2023-05-12T13:50:59;102025.44;;;24.04;nan
53514;BME280;39768;54.148;12.174;2023-05-12T13:55:01;102019.94;;;24.76;nan
53514;BME280;39768;54.148;12.174;2023-05-12T13:59:03;102009.94;;;24.06;nan
53514;BME280;39768;54.148;12.174;2023-05-12T14:03:05;102010.13;;;23.84;nan
53514;BME280;39768;54.148;12.174;2023-05-12T14:07:07;102014.88;;;23.79;nan
53514;BME280;39768;54.148;12.174;2023-05-12T14:11:09;102009.38;;;24.87;nan
53514;BME280;39768;54.148;12.174;2023-05-12T14:15:11;102015.88;;;23.95;nan
53514;BME280;39768;54.148;12.174;2023-05-12T14:19:19;102013.25;;;23.75;nan
53514;BME280;39768;54.148;12.174;2023-05-12T14:23:21;102015.88;;;23.95;nan
53514;BME280;39768;54.148;12.174;2023-05-12T14:27:23;102010.97;;;24.56;nan
53514;BME280;39768;54.148;12.174;2023-05-12T14:31:24;102016.31;;;24.92;nan
53514;BME280;39768;54.148;12.174;2023-05-12T14:35:26;102009.03;;;23.69;nan
53514;BME280;39768;54.148;12.174;2023-05-12T14:39:28;102009.28;;;24.01;nan
53514;BME280;39768;54.148;12.174;2023-05-12T14:43:30;102005.16;;;24.30;nan
53514;BME280;39768;54.148;12.174;2023-05-12T14:47:31;102020.31;;;24.34;nan
53514;BME280;39768;54.148;12.174;2023-05-12T14:51:33;102009.81;;;23.90;nan
53514;BME280;39768;54.148;12.174;2023-05-12T14:55:34;102017.50;;;23.99;nan
53514;BME280;39768;54.148;12.174;2023-05-12T14:59:36;102015.00;;;23.95;nan
53514;BME280;39768;54.148;12.174;2023-05-12T15:03:40;102016.06;;;23.54;nan
53514;BME280;39768;54.148;12.174;2023-05-12T15:07:42;102010.25;;;23.62;nan
53514;BME280;39768;54.148;12.174;2023-05-12T15:11:43;102008.72;;;23.94;nan
53514;BME280;39768;54.148;12.174;2023-05-12T15:15:45;102007.63;;;23.42;nan
53514;BME280;39768;54.148;12.174;2023-05-12T15:19:47;102014.69;;;23.26;nan
53514;BME280;39768;54.148;12.174;2023-05-12T15:23:48;102006.81;;;23.40;nan
53514;BME280;39768;54.148;12.174;2023-05-12T15:27:50;102011.44;;;23.17;nan
53514;BME280;39768;54.148;12.174;2023-05-12T15:31:51;102010.00;;;23.68;nan
53514;BME280;39768;54.148;12.174;2023-05-12T15:35:53;102021.72;;;23.87;nan
53514;BME280;39768;54.148;12.174;2023-05-12T15:39:55;102018.72;;;23.56;nan
53514;BME280;39768;54.148;12.174;2023-05-12T15:44:00;102021.53;;;22.95;nan
53514;BME280;39768;54.148;12.174;2023-05-12T15:48:05;102012.91;;;22.65;nan
53514;BME280;39768;54.148;12.174;2023-05-12T15:52:09;102022.41;;;22.96;nan
53514;BME280;39768;54.148;12.174;2023-05-12T15:56:11;102024.41;;;22.91;nan
53514;BME280;39768;54.148;12.174;2023-05-12T16:00:13;102021.22;;;23.01;nan
53514;BME280;39768;54.148;12.174;2023-05-12T16:04:15;102024.09;;;22.78;nan
53514;BME280;39768;54.148;12.174;2023-05-12T16:08:17;102023.66;;;23.07;nan
53514;BME280;39768;54.148;12.174;2023-05-12T16:12:19;102023.44;;;22.51;nan
53514;BME280;39768;54.148;12.174;2023-05-12T16:16:20;102025.03;;;22.35;nan
53514;BME280;39768;54.148;12.174;2023-05-12T16:20:22;102027.31;;;23.27;nan
53514;BME280;39768;54.148;12.174;2023-05-12T16:24:24;102015.75;;;23.03;nan
53514;BME280;39768;54.148;12.174;2023-05-12T16:28:28;102028.88;;;22.92;nan
53514;BME280;39768;54.148;12.174;2023-05-12T16:32:30;102027.50;;;22.83;nan
53514;BME280;39768;54.148;12.174;2023-05-12T16:36:32;102032.28;;;22.34;nan
53514;BME280;39768;54.148;12.174;2023-05-12T16:40:34;102032.28;;;22.76;nan
53514;BME280;39768;54.148;12.174;2023-05-12T16:44:35;102038.19;;;23.83;nan
53514;BME280;39768;54.148;12.174;2023-05-12T16:48:37;102036.94;;;23.32;nan
53514;BME280;39768;54.148;12.174;2023-05-12T16:52:39;102042.59;;;23.85;nan
53514;BME280;39768;54.148;12.174;2023-05-12T16:56:40;102045.88;;;22.95;nan
53514;BME280;39768;54.148;12.174;2023-05-12T17:00:41;102050.38;;;22.74;nan
53514;BME280;39768;54.148;12.174;2023-05-12T17:04:43;102047.22;;;22.65;nan
53514;BME280;39768;54.148;12.174;2023-05-12T17:08:45;102055.72;;;22.98;nan
53514;BME280;39768;54.148;12.174;2023-05-12T17:12:46;102048.28;;;22.61;nan
53514;BME280;39768;54.148;12.174;2023-05-12T17:16:48;102054.09;;;22.51;nan
53514;BME280;39768;54.148;12.174;2023-05-12T17:20:50;102056.00;;;21.82;nan
53514;BME280;39768;54.148;12.174;2023-05-12T17:24:51;102054.63;;;22.17;nan
53514;BME280;39768;54.148;12.174;2023-05-12T17:28:53;102057.50;;;22.35;nan
53514;BME280;39768;54.148;12.174;2023-05-12T17:32:54;102060.88;;;22.62;nan
53514;BME280;39768;54.148;12.174;2023-05-12T17:36:56;102056.00;;;21.11;nan
53514;BME280;39768;54.148;12.174;2023-05-12T17:40:58;102057.16;;;20.54;nan
53514;BME280;39768;54.148;12.174;2023-05-12T17:45:00;102060.78;;;20.53;nan
53514;BME280;39768;54.148;12.174;2023-05-12T17:49:02;102058.06;;;20.27;nan
53514;BME280;39768;54.148;12.174;2023-05-12T17:53:04;102061.91;;;20.18;nan
53514;BME280;39768;54.148;12.174;2023-05-12T17:57:06;102065.38;;;20.50;nan
53514;BME280;39768;54.148;12.174;2023-05-12T18:01:08;102066.84;;;19.76;nan
53514;BME280;39768;54.148;12.174;2023-05-12T18:05:10;102073.53;;;19.63;nan
53514;BME280;39768;54.148;12.174;2023-05-12T18:09:11;102081.38;;;19.41;nan
53514;BME280;39768;54.148;12.174;2023-05-12T18:13:13;102078.06;;;18.66;nan
53514;BME280;39768;54.148;12.174;2023-05-12T18:17:16;102077.34;;;18.57;nan
53514;BME280;39768;54.148;12.174;2023-05-12T18:21:18;102074.16;;;18.41;nan
53514;BME280;39768;54.148;12.174;2023-05-12T18:25:19;102079.25;;;18.53;nan
53514;BME280;39768;54.148;12.174;2023-05-12T18:29:21;102079.81;;;18.30;nan
53514;BME280;39768;54.148;12.174;2023-05-12T18:33:22;102095.56;;;18.10;nan
53514;BME280;39768;54.148;12.174;2023-05-12T18:37:24;102102.50;;;17.80;nan
53514;BME280;39768;54.148;12.174;2023-05-12T18:41:26;102098.19;;;17.72;nan
53514;BME280;39768;54.148;12.174;2023-05-12T18:45:27;102096.47;;;17.69;nan
53514;BME280;39768;54.148;12.174;2023-05-12T18:49:29;102108.53;;;17.47;nan
53514;BME280;39768;54.148;12.174;2023-05-12T18:53:30;102113.19;;;17.37;nan
53514;BME280;39768;54.148;12.174;2023-05-12T18:57:32;102113.06;;;17.45;nan
53514;BME280;39768;54.148;12.174;2023-05-12T19:01:34;102114.03;;;17.41;nan
53514;BME280;39768;54.148;12.174;2023-05-12T19:05:35;102121.09;;;17.00;nan
53514;BME280;39768;54.148;12.174;2023-05-12T19:09:37;102116.97;;;16.79;nan
53514;BME280;39768;54.148;12.174;2023-05-12T19:13:38;102118.09;;;16.66;nan
53514;BME280;39768;54.148;12.174;2023-05-12T19:17:43;102119.13;;;16.57;nan
53514;BME280;39768;54.148;12.174;2023-05-12T19:21:45;102113.06;;;16.46;nan
53514;BME280;39768;54.148;12.174;2023-05-12T19:25:46;102125.41;;;16.56;nan
53514;BME280;39768;54.148;12.174;2023-05-12T19:29:48;102123.72;;;16.48;nan
53514;BME280;39768;54.148;12.174;2023-05-12T19:33:50;102129.47;;;16.25;nan
53514;BME280;39768;54.148;12.174;2023-05-12T19:37:52;102131.00;;;15.80;nan
53514;BME280;39768;54.148;12.174;2023-05-12T19:41:53;102134.50;;;15.86;nan
53514;BME280;39768;54.148;12.174;2023-05-12T19:45:55;102133.34;;;16.03;nan
53514;BME280;39768;54.148;12.174;2023-05-12T19:49:56;102138.47;;;16.19;nan
53514;BME280;39768;54.148;12.174;2023-05-12T19:53:58;102142.88;;;16.23;nan
53514;BME280;39768;54.148;12.174;2023-05-12T19:57:59;102150.72;;;16.36;nan
53514;BME280;39768;54.148;12.174;2023-05-12T20:02:02;102145.75;;;16.10;nan
53514;BME280;39768;54.148;12.174;2023-05-12T20:06:04;102148.69;;;15.92;nan
53514;BME280;39768;54.148;12.174;2023-05-12T20:10:06;102157.16;;;16.24;nan
53514;BME280;39768;54.148;12.174;2023-05-12T20:14:08;102152.72;;;16.23;nan
53514;BME280;39768;54.148;12.174;2023-05-12T20:18:09;102148.09;;;16.33;nan
53514;BME280;39768;54.148;12.174;2023-05-12T20:22:12;102148.28;;;15.50;nan
53514;BME280;39768;54.148;12.174;2023-05-12T20:26:14;102150.06;;;15.56;nan
53514;BME280;39768;54.148;12.174;2023-05-12T20:30:15;102149.09;;;15.60;nan
53514;BME280;39768;54.148;12.174;2023-05-12T20:34:18;102154.34;;;15.70;nan
53514;BME280;39768;54.148;12.174;2023-05-12T20:38:19;102155.22;;;15.71;nan
53514;BME280;39768;54.148;12.174;2023-05-12T20:42:21;102156.38;;;15.44;nan
53514;BME280;39768;54.148;12.174;2023-05-12T20:46:22;102152.22;;;15.15;nan
53514;BME280;39768;54.148;12.174;2023-05-12T20:50:25;102153.25;;;15.04;nan
53514;BME280;39768;54.148;12.174;2023-05-12T20:54:27;102149.94;;;14.73;nan
53514;BME280;39768;54.148;12.174;2023-05-12T20:58:28;102144.63;;;14.71;nan
53514;BME280;39768;54.148;12.174;2023-05-12T21:02:30;102149.84;;;14.85;nan
53514;BME280;39768;54.148;12.174;2023-05-12T21:06:33;102145.22;;;15.02;nan
53514;BME280;39768;54.148;12.174;2023-05-12T21:10:34;102146.50;;;14.60;nan
53514;BME280;39768;54.148;12.174;2023-05-12T21:14:41;102143.50;;;14.98;nan
53514;BME280;39768;54.148;12.174;2023-05-12T21:18:42;102143.72;;;14.74;nan
53514;BME280;39768;54.148;12.174;2023-05-12T21:22:44;102140.25;;;14.60;nan
53514;BME280;39768;54.148;12.174;2023-05-12T21:26:45;102140.28;;;14.58;nan